createdAt,value
2018-05-24T00:02:20.996Z,18.81
2018-05-24T00:04:49.571Z,18.75
2018-05-24T00:07:18.146Z,18.79
2018-05-24T00:09:46.702Z,18.79
2018-05-24T00:12:15.259Z,18.77
2018-05-24T00:14:43.832Z,18.84
2018-05-24T00:17:12.392Z,18.86
2018-05-24T00:19:40.955Z,18.85
2018-05-24T00:22:09.521Z,18.83
2018-05-24T00:24:38.079Z,18.75
2018-05-24T00:27:06.655Z,18.65
2018-05-24T00:29:35.219Z,18.71
2018-05-24T00:32:03.817Z,18.69
2018-05-24T00:34:32.422Z,18.67
2018-05-24T00:37:01.005Z,18.72
2018-05-24T00:39:29.566Z,18.80
2018-05-24T00:41:58.131Z,18.81
2018-05-24T00:44:26.743Z,18.74
2018-05-24T00:46:55.316Z,18.72
2018-05-24T00:49:23.871Z,18.67
2018-05-24T00:51:52.429Z,18.63
2018-05-24T00:54:21.110Z,18.64
2018-05-24T00:56:49.680Z,18.60
2018-05-24T00:59:18.238Z,18.61
2018-05-24T01:01:46.814Z,18.59
2018-05-24T01:04:15.403Z,18.59
2018-05-24T01:06:43.966Z,18.61
2018-05-24T01:09:12.540Z,18.65
2018-05-24T01:11:41.107Z,18.68
2018-05-24T01:14:09.710Z,18.68
2018-05-24T01:16:38.293Z,18.66
2018-05-24T01:19:06.852Z,18.67
2018-05-24T01:21:35.460Z,18.65
2018-05-24T01:24:03.668Z,18.68
2018-05-24T01:26:32.252Z,18.66
2018-05-24T01:29:00.825Z,18.66
2018-05-24T01:31:29.392Z,18.67
2018-05-24T01:33:57.950Z,18.69
2018-05-24T01:36:41.445Z,18.76
2018-05-24T01:39:10.044Z,18.72
2018-05-24T01:41:39.253Z,18.71
2018-05-24T01:44:07.814Z,18.68
2018-05-24T01:46:36.379Z,18.71
2018-05-24T01:49:04.934Z,18.71
2018-05-24T01:51:33.557Z,18.70
2018-05-24T01:54:02.116Z,18.70
2018-05-24T01:56:30.727Z,18.70
2018-05-24T01:58:59.287Z,18.63
2018-05-24T02:01:27.896Z,18.59
2018-05-24T02:03:56.464Z,18.56
2018-05-24T02:06:24.768Z,18.51
2018-05-24T02:08:53.331Z,18.43
2018-05-24T02:11:21.906Z,18.44
2018-05-24T02:13:50.467Z,18.41
2018-05-24T02:16:19.025Z,18.41
2018-05-24T02:18:47.591Z,18.40
2018-05-24T02:21:16.147Z,18.34
2018-05-24T02:23:44.709Z,18.32
2018-05-24T02:26:13.279Z,18.28
2018-05-24T02:28:41.844Z,18.13
2018-05-24T02:31:10.404Z,18.07
2018-05-24T02:33:38.977Z,18.13
2018-05-24T02:36:07.827Z,18.17
2018-05-24T02:38:36.359Z,18.16
2018-05-24T02:41:04.939Z,18.19
2018-05-24T02:43:33.508Z,18.21
2018-05-24T02:46:02.113Z,18.24
2018-05-24T02:48:30.671Z,18.13
2018-05-24T02:50:59.286Z,18.11
2018-05-24T02:53:27.851Z,18.17
2018-05-24T02:55:56.417Z,18.16
2018-05-24T02:58:25.034Z,18.19
2018-05-24T03:00:53.588Z,18.24
2018-05-24T03:03:22.160Z,18.27
2018-05-24T03:05:50.778Z,18.25
2018-05-24T03:08:19.347Z,18.29
2018-05-24T03:10:47.945Z,18.34
2018-05-24T03:13:16.541Z,18.38
2018-05-24T03:15:45.142Z,18.30
2018-05-24T03:18:13.703Z,18.25
2018-05-24T03:20:42.272Z,18.26
2018-05-24T03:23:10.851Z,18.23
2018-05-24T03:25:39.407Z,18.22
2018-05-24T03:28:07.964Z,18.10
2018-05-24T03:30:36.571Z,18.09
2018-05-24T03:33:05.126Z,18.08
2018-05-24T03:35:33.730Z,18.09
2018-05-24T03:38:02.327Z,18.12
2018-05-24T03:40:30.928Z,18.14
2018-05-24T03:42:59.487Z,18.20
2018-05-24T03:45:28.205Z,18.25
2018-05-24T03:47:56.827Z,18.24
2018-05-24T03:50:25.396Z,18.28
2018-05-24T03:52:53.970Z,18.31
2018-05-24T03:55:22.528Z,18.30
2018-05-24T03:57:51.186Z,18.31
2018-05-24T04:00:30.775Z,18.34
2018-05-24T04:03:10.310Z,18.35
2018-05-24T04:05:38.917Z,18.35
2018-05-24T04:08:09.335Z,18.37
2018-05-24T04:10:37.907Z,18.43
2018-05-24T04:13:06.501Z,18.46
2018-05-24T04:15:35.077Z,18.49
2018-05-24T04:18:03.640Z,18.53
2018-05-24T04:20:32.190Z,18.56
2018-05-24T04:23:00.752Z,18.64
2018-05-24T04:25:29.322Z,18.74
2018-05-24T04:27:57.884Z,18.77
2018-05-24T04:30:26.461Z,18.78
2018-05-24T04:32:55.082Z,18.84
2018-05-24T04:35:23.799Z,18.86
2018-05-24T04:37:52.368Z,18.96
2018-05-24T04:40:20.938Z,19.02
2018-05-24T04:42:49.521Z,19.06
2018-05-24T04:45:18.097Z,19.07
2018-05-24T04:47:46.665Z,19.00
2018-05-24T04:50:15.232Z,19.00
2018-05-24T04:52:43.807Z,19.01
2018-05-24T04:55:12.369Z,19.01
2018-05-24T04:57:40.952Z,18.97
2018-05-24T05:00:09.562Z,19.07
2018-05-24T05:02:38.126Z,19.14
2018-05-24T05:05:06.691Z,19.24
2018-05-24T05:07:35.300Z,19.36
2018-05-24T05:10:03.886Z,19.60
2018-05-24T05:12:32.460Z,19.71
2018-05-24T05:15:01.026Z,19.86
2018-05-24T05:17:29.587Z,19.96
2018-05-24T05:19:58.151Z,20.25
2018-05-24T05:22:26.715Z,20.59
2018-05-24T05:24:55.275Z,20.95
2018-05-24T05:27:23.607Z,21.21
2018-05-24T05:29:52.167Z,21.20
2018-05-24T05:32:20.780Z,21.13
2018-05-24T05:34:49.340Z,21.05
2018-05-24T05:37:17.909Z,21.12
2018-05-24T05:39:46.491Z,21.16
2018-05-24T05:42:15.057Z,21.17
2018-05-24T05:44:43.635Z,21.14
2018-05-24T05:47:12.425Z,21.00
2018-05-24T05:49:41.001Z,21.37
2018-05-24T05:52:09.706Z,21.51
2018-05-24T05:54:38.391Z,21.72
2018-05-24T05:57:06.963Z,22.01
2018-05-24T05:59:35.518Z,21.78
2018-05-24T06:02:04.179Z,22.11
2018-05-24T06:04:32.753Z,22.34
2018-05-24T06:07:01.083Z,22.36
2018-05-24T06:09:29.656Z,22.25
2018-05-24T06:11:58.446Z,22.01
2018-05-24T06:14:27.030Z,22.09
2018-05-24T06:16:55.832Z,21.89
2018-05-24T06:19:24.975Z,21.70
2018-05-24T06:21:53.725Z,21.66
2018-05-24T06:24:22.289Z,21.75
2018-05-24T06:26:50.886Z,21.83
2018-05-24T06:29:19.516Z,21.83
2018-05-24T06:31:48.111Z,21.80
2018-05-24T06:34:16.673Z,21.70
2018-05-24T06:36:45.245Z,21.65
2018-05-24T06:39:13.833Z,21.64
2018-05-24T06:41:42.390Z,21.61
2018-05-24T06:44:10.969Z,21.33
2018-05-24T06:46:39.531Z,21.24
2018-05-24T06:49:08.083Z,21.35
2018-05-24T06:51:36.695Z,21.36
2018-05-24T06:54:05.296Z,21.40
2018-05-24T06:56:33.908Z,21.49
2018-05-24T06:59:02.517Z,21.60
2018-05-24T07:01:31.095Z,21.72
2018-05-24T07:03:59.700Z,21.65
2018-05-24T07:06:28.288Z,21.57
2018-05-24T07:08:56.871Z,21.59
2018-05-24T07:11:25.437Z,21.51
2018-05-24T07:13:54.033Z,21.44
2018-05-24T07:16:22.603Z,21.48
2018-05-24T07:18:52.103Z,21.46
2018-05-24T07:21:20.654Z,21.49
2018-05-24T07:23:49.225Z,21.68
2018-05-24T07:26:17.455Z,21.82
2018-05-24T07:28:46.025Z,22.06
2018-05-24T07:31:14.598Z,22.26
2018-05-24T07:33:43.165Z,22.54
2018-05-24T07:36:11.771Z,22.63
2018-05-24T07:38:40.332Z,22.62
2018-05-24T07:41:08.907Z,22.64
2018-05-24T07:43:37.483Z,22.57
2018-05-24T07:46:08.748Z,22.69
2018-05-24T07:48:37.308Z,22.88
2018-05-24T07:51:06.063Z,23.34
2018-05-24T07:53:34.689Z,23.46
2018-05-24T07:56:03.912Z,23.39
2018-05-24T07:58:32.521Z,23.23
2018-05-24T08:01:01.137Z,23.08
2018-05-24T08:03:29.900Z,23.17
2018-05-24T08:05:58.472Z,23.41
2018-05-24T08:08:27.063Z,23.51
2018-05-24T08:10:55.651Z,23.44
2018-05-24T08:13:24.255Z,23.44
2018-05-24T08:15:52.870Z,23.82
2018-05-24T08:18:21.474Z,23.94
2018-05-24T08:20:50.049Z,23.82
2018-05-24T08:23:18.610Z,23.83
2018-05-24T08:25:47.202Z,23.93
2018-05-24T08:28:15.790Z,24.05
2018-05-24T08:30:44.585Z,24.17
2018-05-24T08:33:13.193Z,24.17
2018-05-24T08:35:41.756Z,24.03
2018-05-24T08:38:10.326Z,24.18
2018-05-24T08:40:38.230Z,24.38
2018-05-24T08:43:07.082Z,24.10
2018-05-24T08:45:35.841Z,23.78
2018-05-24T08:48:04.405Z,23.85
2018-05-24T08:50:32.971Z,23.47
2018-05-24T08:53:02.363Z,23.55
2018-05-24T08:55:30.941Z,23.82
2018-05-24T08:57:59.553Z,23.78
2018-05-24T09:00:28.159Z,23.92
2018-05-24T09:02:56.837Z,24.27
2018-05-24T09:05:25.407Z,24.54
2018-05-24T09:07:53.994Z,24.24
2018-05-24T09:10:22.593Z,24.32
2018-05-24T09:12:51.152Z,23.82
2018-05-24T09:15:19.753Z,23.77
2018-05-24T09:17:48.333Z,24.00
2018-05-24T09:20:17.530Z,23.38
2018-05-24T09:22:46.262Z,23.42
2018-05-24T09:25:14.882Z,23.23
2018-05-24T09:27:43.725Z,23.48
2018-05-24T09:30:12.324Z,23.50
2018-05-24T09:32:40.868Z,23.72
2018-05-24T09:35:09.478Z,23.61
2018-05-24T09:37:38.080Z,23.96
2018-05-24T09:40:06.640Z,24.38
2018-05-24T09:42:35.195Z,23.86
2018-05-24T09:45:03.771Z,24.03
2018-05-24T09:47:32.380Z,23.50
2018-05-24T09:50:00.952Z,23.89
2018-05-24T09:52:29.531Z,24.20
2018-05-24T09:54:58.104Z,23.69
2018-05-24T09:57:26.675Z,23.53
2018-05-24T09:59:55.244Z,23.64
2018-05-24T10:02:23.844Z,23.73
2018-05-24T10:04:52.402Z,23.51
2018-05-24T10:07:20.948Z,23.48
2018-05-24T10:09:49.495Z,23.39
2018-05-24T10:12:18.100Z,23.34
2018-05-24T10:14:46.750Z,23.37
2018-05-24T10:17:15.428Z,23.31
2018-05-24T10:19:43.964Z,22.91
2018-05-24T10:22:12.545Z,22.75
2018-05-24T10:24:41.180Z,22.71
2018-05-24T10:27:09.817Z,22.91
2018-05-24T10:29:38.364Z,22.61
2018-05-24T10:32:06.964Z,22.40
2018-05-24T10:34:35.515Z,22.68
2018-05-24T10:37:04.119Z,22.88
2018-05-24T10:39:32.710Z,22.63
2018-05-24T10:42:01.275Z,22.67
2018-05-24T10:44:29.928Z,22.87
2018-05-24T10:46:58.491Z,22.98
2018-05-24T10:49:27.071Z,22.73
2018-05-24T10:51:55.630Z,22.61
2018-05-24T10:54:24.244Z,22.70
2018-05-24T10:56:53.414Z,22.64
2018-05-24T10:59:22.037Z,22.67
2018-05-24T11:01:50.631Z,22.51
2018-05-24T11:04:19.194Z,22.28
2018-05-24T11:06:47.848Z,22.23
2018-05-24T11:09:16.420Z,21.73
2018-05-24T11:11:44.997Z,21.58
2018-05-24T11:14:13.748Z,21.58
2018-05-24T11:16:42.321Z,21.38
2018-05-24T11:19:10.905Z,21.27
2018-05-24T11:21:39.495Z,21.19
2018-05-24T11:24:08.130Z,21.34
2018-05-24T11:26:36.736Z,21.48
2018-05-24T11:29:05.312Z,21.47
2018-05-24T11:31:33.883Z,21.19
2018-05-24T11:34:02.441Z,21.07
2018-05-24T11:36:30.999Z,20.68
2018-05-24T11:38:59.569Z,20.45
2018-05-24T11:41:28.124Z,20.32
2018-05-24T11:43:56.695Z,20.33
2018-05-24T11:46:25.335Z,20.27
2018-05-24T11:48:53.903Z,20.07
2018-05-24T11:51:22.497Z,19.94
2018-05-24T11:53:51.050Z,19.65
2018-05-24T11:56:19.614Z,19.57
2018-05-24T11:58:48.220Z,19.61
2018-05-24T12:01:16.786Z,19.75
2018-05-24T12:03:45.363Z,19.41
2018-05-24T12:06:13.927Z,19.28
2018-05-24T12:08:42.536Z,19.37
2018-05-24T12:11:11.120Z,19.22
2018-05-24T12:13:39.730Z,19.23
2018-05-24T12:16:08.299Z,19.23
2018-05-24T12:18:36.869Z,19.08
2018-05-24T12:21:05.203Z,19.12
2018-05-24T12:23:34.015Z,19.15
2018-05-24T12:26:02.589Z,19.22
2018-05-24T12:28:31.142Z,19.37
2018-05-24T12:33:33.579Z,19.11
2018-05-24T12:36:02.143Z,19.12
2018-05-24T12:38:30.722Z,19.21
2018-05-24T12:40:59.354Z,19.06
2018-05-24T12:43:27.907Z,18.84
2018-05-24T12:45:56.463Z,18.87
2018-05-24T12:48:25.219Z,18.85
2018-05-24T12:50:53.803Z,18.85
2018-05-24T12:53:22.352Z,18.98
2018-05-24T12:55:50.904Z,19.16
2018-05-24T12:58:19.469Z,19.23
2018-05-24T13:00:48.080Z,19.12
2018-05-24T13:03:16.651Z,19.14
2018-05-24T13:05:45.211Z,19.13
2018-05-24T13:08:13.770Z,19.22
2018-05-24T13:10:42.338Z,19.48
2018-05-24T13:13:10.907Z,19.67
2018-05-24T13:15:39.466Z,19.89
2018-05-24T13:18:08.029Z,19.75
2018-05-24T13:20:36.641Z,19.98
2018-05-24T13:23:05.212Z,20.04
2018-05-24T13:25:33.767Z,20.15
2018-05-24T13:28:02.352Z,20.26
2018-05-24T13:30:30.953Z,20.42
2018-05-24T13:32:59.524Z,20.61
2018-05-24T13:35:27.812Z,20.70
2018-05-24T13:37:56.436Z,20.74
2018-05-24T13:40:25.235Z,20.58
2018-05-24T13:42:53.835Z,20.57
2018-05-24T13:45:22.541Z,20.78
2018-05-24T13:47:51.213Z,20.91
2018-05-24T13:50:19.797Z,21.00
2018-05-24T13:52:48.364Z,20.85
2018-05-24T13:55:17.047Z,20.44
2018-05-24T13:57:46.664Z,20.31
2018-05-24T14:00:15.245Z,20.24
2018-05-24T14:02:43.605Z,20.26
2018-05-24T14:05:12.228Z,20.16
2018-05-24T14:07:40.877Z,20.30
2018-05-24T14:10:09.446Z,20.39
2018-05-24T14:12:38.041Z,20.55
2018-05-24T14:15:06.656Z,20.59
2018-05-24T14:17:35.223Z,20.63
2018-05-24T14:20:03.471Z,20.80
2018-05-24T14:22:32.024Z,20.72
2018-05-24T14:25:00.627Z,20.81
2018-05-24T14:27:29.196Z,20.82
2018-05-24T14:29:57.433Z,20.92
2018-05-24T14:32:26.024Z,21.23
2018-05-24T14:34:54.566Z,21.41
2018-05-24T14:37:23.155Z,21.45
2018-05-24T14:39:51.856Z,21.57
2018-05-24T14:42:20.482Z,21.69
2018-05-24T14:44:49.288Z,21.76
2018-05-24T14:47:17.845Z,21.83
2018-05-24T14:49:46.501Z,21.89
2018-05-24T14:52:15.108Z,21.75
2018-05-24T14:54:43.743Z,21.84
2018-05-24T14:57:12.318Z,21.68
2018-05-24T14:59:40.943Z,21.59
2018-05-24T15:02:09.513Z,21.73
2018-05-24T15:04:38.077Z,21.88
2018-05-24T15:07:06.649Z,21.89
2018-05-24T15:09:35.248Z,21.77
2018-05-24T15:12:03.874Z,21.68
2018-05-24T15:14:32.503Z,21.76
2018-05-24T15:17:01.063Z,21.92
2018-05-24T15:19:29.634Z,21.82
2018-05-24T15:21:58.198Z,21.73
2018-05-24T15:24:26.799Z,21.76
2018-05-24T15:26:55.347Z,21.48
2018-05-24T15:29:23.931Z,21.40
2018-05-24T15:31:52.490Z,21.48
2018-05-24T15:34:21.055Z,21.44
2018-05-24T15:36:49.620Z,21.34
2018-05-24T15:39:18.213Z,21.21
2018-05-24T15:41:46.520Z,21.24
2018-05-24T15:44:15.118Z,21.34
2018-05-24T15:46:43.666Z,21.10
2018-05-24T15:49:12.219Z,20.91
2018-05-24T15:51:40.776Z,20.95
2018-05-24T15:54:09.343Z,21.02
2018-05-24T15:56:37.909Z,20.99
2018-05-24T15:59:06.483Z,21.09
2018-05-24T16:01:35.092Z,21.08
2018-05-24T16:04:03.650Z,21.16
2018-05-24T16:06:32.263Z,21.33
2018-05-24T16:09:00.836Z,21.41
2018-05-24T16:11:29.397Z,21.27
2018-05-24T16:13:57.955Z,21.12
2018-05-24T16:16:26.580Z,20.99
2018-05-24T16:18:55.141Z,20.77
2018-05-24T16:21:23.715Z,20.60
2018-05-24T16:23:52.270Z,20.70
2018-05-24T16:26:20.847Z,20.57
2018-05-24T16:28:49.411Z,20.39
2018-05-24T16:31:17.965Z,20.39
2018-05-24T16:33:46.532Z,20.04
2018-05-24T16:36:15.111Z,20.11
2018-05-24T16:38:43.675Z,20.17
2018-05-24T16:41:12.320Z,20.19
2018-05-24T16:43:40.880Z,20.05
2018-05-24T16:46:09.429Z,20.00
2018-05-24T16:48:38.019Z,20.19
2018-05-24T16:51:06.583Z,20.25
2018-05-24T16:53:35.151Z,20.31
2018-05-24T16:56:03.710Z,20.12
2018-05-24T16:58:32.276Z,19.99
2018-05-24T17:01:00.867Z,19.96
2018-05-24T17:03:29.431Z,19.81
2018-05-24T17:05:57.994Z,19.65
2018-05-24T17:08:26.565Z,19.67
2018-05-24T17:10:55.132Z,19.61
2018-05-24T17:13:23.733Z,19.59
2018-05-24T17:15:51.975Z,19.51
2018-05-24T17:18:20.540Z,19.54
2018-05-24T17:20:49.127Z,19.67
2018-05-24T17:23:17.693Z,19.72
2018-05-24T17:25:46.265Z,19.84
2018-05-24T17:28:14.893Z,19.84
2018-05-24T17:30:43.475Z,19.93
2018-05-24T17:33:12.101Z,20.00
2018-05-24T17:35:40.720Z,20.03
2018-05-24T17:38:09.189Z,20.04
2018-05-24T17:40:37.764Z,20.07
2018-05-24T17:43:06.390Z,20.07
2018-05-24T17:45:34.959Z,20.08
2018-05-24T17:48:03.552Z,19.99
2018-05-24T17:50:31.857Z,19.92
2018-05-24T17:53:00.729Z,19.91
2018-05-24T17:55:30.079Z,19.94
2018-05-24T17:57:58.687Z,19.89
2018-05-24T18:00:27.303Z,19.93
2018-05-24T18:02:55.858Z,19.88
2018-05-24T18:05:24.419Z,19.90
2018-05-24T18:07:52.985Z,19.89
2018-05-24T18:10:21.578Z,19.87
2018-05-24T18:12:50.188Z,19.83
2018-05-24T18:15:18.753Z,19.82
2018-05-24T18:17:47.360Z,19.79
2018-05-24T18:20:15.959Z,19.76
2018-05-24T18:22:44.571Z,19.66
2018-05-24T18:25:13.155Z,19.65
2018-05-24T18:27:41.780Z,19.71
2018-05-24T18:30:11.620Z,19.73
2018-05-24T18:32:40.206Z,19.70
2018-05-24T18:35:09.148Z,19.66
2018-05-24T18:37:37.731Z,19.64
2018-05-24T18:40:06.312Z,19.65
2018-05-24T18:42:34.894Z,19.64
2018-05-24T18:45:03.800Z,19.65
2018-05-24T18:47:32.383Z,19.65
2018-05-24T18:50:00.988Z,19.62
2018-05-24T18:52:29.709Z,19.60
2018-05-24T18:54:58.292Z,19.51
2018-05-24T18:57:26.847Z,19.45
2018-05-24T18:59:55.415Z,19.47
2018-05-24T19:02:24.266Z,19.44
2018-05-24T19:04:52.830Z,19.45
2018-05-24T19:07:21.443Z,19.42
2018-05-24T19:09:50.023Z,19.42
2018-05-24T19:12:18.584Z,19.44
2018-05-24T19:14:47.136Z,19.45
2018-05-24T19:17:15.702Z,19.43
2018-05-24T19:19:44.272Z,19.48
2018-05-24T19:22:12.871Z,19.50
2018-05-24T19:24:41.468Z,19.47
2018-05-24T19:27:10.035Z,19.47
2018-05-24T19:29:38.601Z,19.47
2018-05-24T19:32:07.205Z,19.51
2018-05-24T19:34:35.766Z,19.50
2018-05-24T19:37:04.374Z,19.51
2018-05-24T19:39:32.936Z,19.52
2018-05-24T19:42:01.552Z,19.42
2018-05-24T19:44:30.185Z,19.35
2018-05-24T19:46:58.795Z,19.31
2018-05-24T19:49:27.403Z,19.31
2018-05-24T19:51:55.970Z,19.28
2018-05-24T19:54:24.594Z,19.25
2018-05-24T19:56:53.156Z,19.25
2018-05-24T19:59:21.780Z,19.24
2018-05-24T20:01:50.360Z,19.16
2018-05-24T20:04:18.932Z,19.15
2018-05-24T20:06:47.541Z,19.14
2018-05-24T20:09:16.110Z,18.99
2018-05-24T20:11:44.711Z,18.82
2018-05-24T20:14:13.265Z,18.67
2018-05-24T20:16:41.829Z,18.36
2018-05-24T20:19:10.384Z,18.26
2018-05-24T20:21:38.940Z,18.19
2018-05-24T20:24:07.505Z,18.12
2018-05-24T20:26:36.137Z,18.07
2018-05-24T20:29:04.876Z,18.05
2018-05-24T20:31:33.469Z,18.08
2018-05-24T20:34:02.031Z,18.16
2018-05-24T20:36:30.625Z,18.17
2018-05-24T20:38:59.200Z,18.16
2018-05-24T20:41:28.914Z,18.14
2018-05-24T20:43:57.490Z,18.15
2018-05-24T20:46:26.055Z,18.13
2018-05-24T20:48:54.619Z,18.12
2018-05-24T20:51:23.209Z,18.09
2018-05-24T20:53:51.800Z,17.97
2018-05-24T20:56:20.404Z,17.94
2018-05-24T20:58:49.160Z,17.90
2018-05-24T21:01:17.748Z,17.80
2018-05-24T21:03:46.319Z,17.77
2018-05-24T21:06:14.880Z,17.79
2018-05-24T21:08:43.455Z,17.76
2018-05-24T21:11:12.451Z,17.58
2018-05-24T21:13:41.134Z,17.42
2018-05-24T21:16:09.856Z,17.41
2018-05-24T21:18:38.424Z,17.41
2018-05-24T21:21:06.979Z,17.45
2018-05-24T21:23:35.543Z,17.46
2018-05-24T21:26:04.132Z,17.46
2018-05-24T21:28:32.701Z,17.48
2018-05-24T21:31:01.268Z,17.46
2018-05-24T21:33:29.830Z,17.47
2018-05-24T21:35:58.403Z,17.46
2018-05-24T21:38:26.992Z,17.48
2018-05-24T21:40:55.565Z,17.48
2018-05-24T21:43:24.132Z,17.50
2018-05-24T21:45:52.734Z,17.50
2018-05-24T21:48:22.236Z,17.53
2018-05-24T21:50:50.862Z,17.56
2018-05-24T21:53:19.418Z,17.56
2018-05-24T21:55:48.187Z,17.56
2018-05-24T21:58:16.760Z,17.51
2018-05-24T22:00:51.345Z,17.47
2018-05-24T22:03:19.912Z,17.44
2018-05-24T22:05:48.476Z,17.45
2018-05-24T22:08:17.048Z,17.42
2018-05-24T22:10:45.616Z,17.40
2018-05-24T22:13:14.197Z,17.33
2018-05-24T22:15:42.752Z,17.25
2018-05-24T22:18:11.343Z,17.21
2018-05-24T22:20:39.924Z,17.19
2018-05-24T22:23:08.567Z,17.15
2018-05-24T22:25:37.133Z,17.16
2018-05-24T22:28:05.705Z,17.14
2018-05-24T22:30:34.286Z,17.09
2018-05-24T22:33:02.853Z,17.11
2018-05-24T22:35:31.422Z,17.08
2018-05-24T22:38:00.003Z,17.10
2018-05-24T22:40:28.592Z,17.09
2018-05-24T22:42:57.687Z,17.04
2018-05-24T22:45:26.259Z,16.97
2018-05-24T22:47:54.875Z,16.93
2018-05-24T22:50:23.615Z,16.92
2018-05-24T22:52:52.194Z,16.91
2018-05-24T22:55:20.759Z,16.93
2018-05-24T22:57:49.351Z,16.97
2018-05-24T23:00:17.981Z,16.96
2018-05-24T23:02:46.751Z,16.96
2018-05-24T23:05:15.328Z,16.98
2018-05-24T23:07:43.908Z,16.96
2018-05-24T23:10:12.492Z,16.92
2018-05-24T23:12:41.064Z,16.90
2018-05-24T23:15:09.628Z,16.90
2018-05-24T23:17:38.197Z,16.88
2018-05-24T23:20:06.758Z,16.86
2018-05-24T23:22:38.346Z,16.84
2018-05-24T23:25:06.962Z,16.83
2018-05-24T23:27:35.510Z,16.75
2018-05-24T23:30:05.275Z,16.76
2018-05-24T23:32:33.831Z,16.71
2018-05-24T23:35:02.402Z,16.66
2018-05-24T23:37:30.967Z,16.63
2018-05-24T23:39:59.534Z,16.60
2018-05-24T23:42:28.107Z,16.52
2018-05-24T23:44:56.677Z,16.45
2018-05-24T23:47:25.295Z,16.40
2018-05-24T23:49:53.902Z,16.36
2018-05-24T23:52:22.486Z,16.33
2018-05-24T23:54:51.307Z,16.32
2018-05-24T23:57:19.866Z,16.33
2018-05-24T23:59:48.430Z,16.35
